sensor_id;sensor_type;location;lat;lon;timestamp;pressure;altitude;pressure_sealevel;temperature;humidity
65659;BME280;60181;53.258;6.932;2022-08-18T00:01:36;101377.98;;;23.18;66.05
65659;BME280;60181;53.258;6.932;2022-08-18T00:06:04;101376.64;;;23.18;66.10
65659;BME280;60181;53.258;6.932;2022-08-18T00:10:33;101375.13;;;23.18;66.18
65659;BME280;60181;53.258;6.932;2022-08-18T00:15:00;101372.96;;;23.18;66.19
65659;BME280;60181;53.258;6.932;2022-08-18T00:19:28;101370.47;;;23.18;66.16
65659;BME280;60181;53.258;6.932;2022-08-18T00:23:56;101368.53;;;23.19;66.23
65659;BME280;60181;53.258;6.932;2022-08-18T00:28:24;101368.10;;;23.19;66.34
65659;BME280;60181;53.258;6.932;2022-08-18T00:32:53;101367.69;;;23.19;66.50
65659;BME280;60181;53.258;6.932;2022-08-18T00:37:21;101365.30;;;23.17;66.71
65659;BME280;60181;53.258;6.932;2022-08-18T00:41:48;101363.75;;;23.15;67.11
65659;BME280;60181;53.258;6.932;2022-08-18T00:46:20;101364.37;;;23.13;66.66
65659;BME280;60181;53.258;6.932;2022-08-18T00:50:54;101366.31;;;23.11;66.72
65659;BME280;60181;53.258;6.932;2022-08-18T00:55:12;101366.49;;;23.10;66.70
65659;BME280;60181;53.258;6.932;2022-08-18T00:59:43;101365.61;;;23.08;66.70
65659;BME280;60181;53.258;6.932;2022-08-18T01:04:11;101363.31;;;23.05;66.69
65659;BME280;60181;53.258;6.932;2022-08-18T01:08:36;101361.10;;;23.02;66.65
65659;BME280;60181;53.258;6.932;2022-08-18T01:13:04;101359.80;;;23.00;66.51
65659;BME280;60181;53.258;6.932;2022-08-18T01:17:32;101359.84;;;22.98;66.43
65659;BME280;60181;53.258;6.932;2022-08-18T01:22:03;101359.08;;;22.97;66.40
65659;BME280;60181;53.258;6.932;2022-08-18T01:26:28;101358.67;;;22.96;66.43
65659;BME280;60181;53.258;6.932;2022-08-18T01:30:57;101358.00;;;22.96;66.37
65659;BME280;60181;53.258;6.932;2022-08-18T01:35:25;101356.16;;;22.96;66.41
65659;BME280;60181;53.258;6.932;2022-08-18T01:39:52;101356.50;;;22.96;66.37
65659;BME280;60181;53.258;6.932;2022-08-18T01:44:20;101356.00;;;22.96;66.32
65659;BME280;60181;53.258;6.932;2022-08-18T01:48:48;101354.49;;;22.96;66.33
65659;BME280;60181;53.258;6.932;2022-08-18T01:53:16;101353.25;;;22.96;66.29
65659;BME280;60181;53.258;6.932;2022-08-18T01:57:44;101353.75;;;22.96;66.20
65659;BME280;60181;53.258;6.932;2022-08-18T02:02:13;101355.50;;;22.97;66.06
65659;BME280;60181;53.258;6.932;2022-08-18T02:06:40;101356.73;;;22.98;65.70
65659;BME280;60181;53.258;6.932;2022-08-18T02:11:08;101357.72;;;22.99;65.70
65659;BME280;60181;53.258;6.932;2022-08-18T02:15:36;101358.37;;;23.00;65.65
65659;BME280;60181;53.258;6.932;2022-08-18T02:20:05;101358.20;;;23.01;65.78
65659;BME280;60181;53.258;6.932;2022-08-18T02:24:32;101359.19;;;23.02;65.90
65659;BME280;60181;53.258;6.932;2022-08-18T02:29:00;101359.16;;;23.03;65.95
65659;BME280;60181;53.258;6.932;2022-08-18T02:33:28;101360.42;;;23.04;66.10
65659;BME280;60181;53.258;6.932;2022-08-18T02:37:59;101361.08;;;23.04;66.23
65659;BME280;60181;53.258;6.932;2022-08-18T02:42:24;101360.42;;;23.04;66.36
65659;BME280;60181;53.258;6.932;2022-08-18T02:46:53;101359.31;;;23.03;66.45
65659;BME280;60181;53.258;6.932;2022-08-18T02:51:20;101358.73;;;23.03;66.48
65659;BME280;60181;53.258;6.932;2022-08-18T02:55:48;101358.31;;;23.03;66.49
65659;BME280;60181;53.258;6.932;2022-08-18T03:00:17;101355.74;;;23.03;66.61
65659;BME280;60181;53.258;6.932;2022-08-18T03:04:44;101353.17;;;23.02;66.65
65659;BME280;60181;53.258;6.932;2022-08-18T03:09:13;101351.49;;;23.02;66.74
65659;BME280;60181;53.258;6.932;2022-08-18T03:13:40;101351.84;;;23.01;66.78
65659;BME280;60181;53.258;6.932;2022-08-18T03:18:08;101353.18;;;23.01;66.80
65659;BME280;60181;53.258;6.932;2022-08-18T03:22:36;101353.94;;;23.01;66.82
65659;BME280;60181;53.258;6.932;2022-08-18T03:27:05;101353.27;;;23.01;66.77
65659;BME280;60181;53.258;6.932;2022-08-18T03:31:32;101352.26;;;23.01;66.87
65659;BME280;60181;53.258;6.932;2022-08-18T03:36:04;101352.26;;;23.01;66.87
65659;BME280;60181;53.258;6.932;2022-08-18T03:40:28;101354.11;;;23.01;66.89
65659;BME280;60181;53.258;6.932;2022-08-18T03:44:56;101355.04;;;23.00;67.02
65659;BME280;60181;53.258;6.932;2022-08-18T03:49:25;101355.86;;;23.00;66.98
65659;BME280;60181;53.258;6.932;2022-08-18T03:53:53;101356.89;;;22.99;67.08
65659;BME280;60181;53.258;6.932;2022-08-18T03:58:20;101359.72;;;22.99;67.02
65659;BME280;60181;53.258;6.932;2022-08-18T04:02:48;101362.16;;;22.99;66.97
65659;BME280;60181;53.258;6.932;2022-08-18T04:07:16;101363.58;;;22.98;67.03
65659;BME280;60181;53.258;6.932;2022-08-18T04:11:44;101365.67;;;22.98;66.97
65659;BME280;60181;53.258;6.932;2022-08-18T04:16:12;101367.44;;;22.97;66.95
65659;BME280;60181;53.258;6.932;2022-08-18T04:20:40;101369.20;;;22.97;66.98
65659;BME280;60181;53.258;6.932;2022-08-18T04:25:08;101370.26;;;22.97;66.99
65659;BME280;60181;53.258;6.932;2022-08-18T04:29:36;101372.71;;;22.96;67.05
65659;BME280;60181;53.258;6.932;2022-08-18T04:34:04;101376.23;;;22.96;67.25
65659;BME280;60181;53.258;6.932;2022-08-18T04:38:32;101380.31;;;22.96;67.20
65659;BME280;60181;53.258;6.932;2022-08-18T04:43:00;101384.83;;;22.96;67.17
65659;BME280;60181;53.258;6.932;2022-08-18T04:47:28;101388.36;;;22.96;67.21
65659;BME280;60181;53.258;6.932;2022-08-18T04:51:56;101391.77;;;22.95;67.24
65659;BME280;60181;53.258;6.932;2022-08-18T04:56:28;101393.62;;;22.95;67.26
65659;BME280;60181;53.258;6.932;2022-08-18T05:00:59;101395.39;;;22.95;67.21
65659;BME280;60181;53.258;6.932;2022-08-18T05:05:20;101398.80;;;22.95;67.50
65659;BME280;60181;53.258;6.932;2022-08-18T05:09:48;101403.13;;;22.94;67.42
65659;BME280;60181;53.258;6.932;2022-08-18T05:14:16;101406.31;;;22.93;67.37
65659;BME280;60181;53.258;6.932;2022-08-18T05:18:44;101409.19;;;22.92;67.42
65659;BME280;60181;53.258;6.932;2022-08-18T05:23:12;101411.04;;;22.91;67.53
65659;BME280;60181;53.258;6.932;2022-08-18T05:27:40;101410.91;;;22.89;67.85
65659;BME280;60181;53.258;6.932;2022-08-18T05:32:08;101410.36;;;22.87;67.82
65659;BME280;60181;53.258;6.932;2022-08-18T05:36:54;101409.63;;;22.84;68.19
65659;BME280;60181;53.258;6.932;2022-08-18T05:41:08;101409.25;;;22.82;68.17
65659;BME280;60181;53.258;6.932;2022-08-18T05:45:32;101410.85;;;22.81;67.83
65659;BME280;60181;53.258;6.932;2022-08-18T05:50:04;101412.10;;;22.81;68.21
65659;BME280;60181;53.258;6.932;2022-08-18T05:54:31;101414.11;;;22.81;68.21
65659;BME280;60181;53.258;6.932;2022-08-18T05:58:56;101416.16;;;22.82;68.09
65659;BME280;60181;53.258;6.932;2022-08-18T06:03:26;101418.17;;;22.82;68.45
65659;BME280;60181;53.258;6.932;2022-08-18T06:07:53;101418.68;;;22.83;68.26
65659;BME280;60181;53.258;6.932;2022-08-18T06:12:26;101418.66;;;22.83;68.12
65659;BME280;60181;53.258;6.932;2022-08-18T06:17:03;101419.16;;;22.83;68.41
65659;BME280;60181;53.258;6.932;2022-08-18T06:30:22;101424.55;;;22.79;69.67
65659;BME280;60181;53.258;6.932;2022-08-18T06:43:36;101428.09;;;22.70;71.08
65659;BME280;60181;53.258;6.932;2022-08-18T06:52:34;101435.33;;;22.65;70.55
65659;BME280;60181;53.258;6.932;2022-08-18T06:57:00;101437.45;;;22.63;70.29
65659;BME280;60181;53.258;6.932;2022-08-18T07:01:28;101439.31;;;22.61;70.55
65659;BME280;60181;53.258;6.932;2022-08-18T07:06:00;101441.74;;;22.61;70.32
65659;BME280;60181;53.258;6.932;2022-08-18T07:14:56;101445.48;;;22.62;69.88
65659;BME280;60181;53.258;6.932;2022-08-18T07:19:20;101447.66;;;22.61;70.59
65659;BME280;60181;53.258;6.932;2022-08-18T07:23:51;101450.12;;;22.59;70.67
65659;BME280;60181;53.258;6.932;2022-08-18T07:32:46;101459.83;;;22.56;70.05
65659;BME280;60181;53.258;6.932;2022-08-18T07:37:20;101463.90;;;22.56;69.94
65659;BME280;60181;53.258;6.932;2022-08-18T07:41:42;101466.67;;;22.56;69.84
65659;BME280;60181;53.258;6.932;2022-08-18T07:46:10;101469.59;;;22.55;70.00
65659;BME280;60181;53.258;6.932;2022-08-18T07:50:46;101471.91;;;22.51;70.22
65659;BME280;60181;53.258;6.932;2022-08-18T07:55:14;101475.75;;;22.50;69.83
65659;BME280;60181;53.258;6.932;2022-08-18T07:59:38;101480.28;;;22.48;69.86
65659;BME280;60181;53.258;6.932;2022-08-18T08:04:03;101486.63;;;22.48;69.48
65659;BME280;60181;53.258;6.932;2022-08-18T08:17:33;101500.46;;;22.50;69.26
65659;BME280;60181;53.258;6.932;2022-08-18T08:21:59;101504.03;;;22.52;69.74
65659;BME280;60181;53.258;6.932;2022-08-18T08:35:17;101515.33;;;22.66;68.81
65659;BME280;60181;53.258;6.932;2022-08-18T08:39:46;101520.51;;;22.65;69.11
65659;BME280;60181;53.258;6.932;2022-08-18T08:44:17;101524.52;;;22.63;69.39
65659;BME280;60181;53.258;6.932;2022-08-18T08:48:41;101527.87;;;22.61;69.51
65659;BME280;60181;53.258;6.932;2022-08-18T08:53:20;101530.16;;;22.59;69.40
65659;BME280;60181;53.258;6.932;2022-08-18T08:57:38;101531.95;;;22.56;69.78
65659;BME280;60181;53.258;6.932;2022-08-18T09:02:24;101536.58;;;22.54;69.47
65659;BME280;60181;53.258;6.932;2022-08-18T09:06:50;101536.58;;;22.51;69.45
65659;BME280;60181;53.258;6.932;2022-08-18T09:24:25;101539.76;;;22.50;69.84
65659;BME280;60181;53.258;6.932;2022-08-18T09:28:56;101540.50;;;22.52;69.63
65659;BME280;60181;53.258;6.932;2022-08-18T09:33:22;101539.89;;;22.54;69.21
65659;BME280;60181;53.258;6.932;2022-08-18T09:37:49;101541.97;;;22.56;69.53
65659;BME280;60181;53.258;6.932;2022-08-18T09:42:17;101545.62;;;22.57;69.45
65659;BME280;60181;53.258;6.932;2022-08-18T09:51:19;101553.61;;;22.53;69.47
65659;BME280;60181;53.258;6.932;2022-08-18T09:55:40;101556.62;;;22.50;69.41
65659;BME280;60181;53.258;6.932;2022-08-18T10:04:36;101559.07;;;22.47;69.40
65659;BME280;60181;53.258;6.932;2022-08-18T10:13:41;101563.34;;;22.45;69.46
65659;BME280;60181;53.258;6.932;2022-08-18T10:22:42;101570.48;;;22.42;69.89
65659;BME280;60181;53.258;6.932;2022-08-18T10:26:59;101572.50;;;22.38;69.82
65659;BME280;60181;53.258;6.932;2022-08-18T10:31:24;101573.27;;;22.35;69.44
65659;BME280;60181;53.258;6.932;2022-08-18T10:35:53;101574.84;;;22.36;69.39
65659;BME280;60181;53.258;6.932;2022-08-18T10:40:20;101574.24;;;22.38;69.13
65659;BME280;60181;53.258;6.932;2022-08-18T10:44:48;101574.55;;;22.40;69.05
65659;BME280;60181;53.258;6.932;2022-08-18T10:49:18;101573.53;;;22.44;68.66
65659;BME280;60181;53.258;6.932;2022-08-18T10:53:49;101574.50;;;22.49;68.48
65659;BME280;60181;53.258;6.932;2022-08-18T10:58:18;101573.97;;;22.55;68.46
65659;BME280;60181;53.258;6.932;2022-08-18T11:07:11;101578.87;;;22.57;68.47
65659;BME280;60181;53.258;6.932;2022-08-18T11:11:42;101582.47;;;22.56;68.47
65659;BME280;60181;53.258;6.932;2022-08-18T11:20:32;101591.66;;;22.56;67.73
65659;BME280;60181;53.258;6.932;2022-08-18T11:25:00;101594.84;;;22.55;67.68
65659;BME280;60181;53.258;6.932;2022-08-18T11:29:34;101598.01;;;22.52;67.70
65659;BME280;60181;53.258;6.932;2022-08-18T11:33:55;101598.63;;;22.50;67.34
65659;BME280;60181;53.258;6.932;2022-08-18T11:38:23;101598.71;;;22.50;67.45
65659;BME280;60181;53.258;6.932;2022-08-18T11:42:58;101597.85;;;22.51;67.50
65659;BME280;60181;53.258;6.932;2022-08-18T11:47:20;101597.83;;;22.53;67.39
65659;BME280;60181;53.258;6.932;2022-08-18T11:51:58;101597.99;;;22.55;67.26
65659;BME280;60181;53.258;6.932;2022-08-18T12:05:11;101592.00;;;22.63;67.58
65659;BME280;60181;53.258;6.932;2022-08-18T12:09:44;101589.87;;;22.65;67.34
65659;BME280;60181;53.258;6.932;2022-08-18T12:14:08;101589.37;;;22.67;67.28
65659;BME280;60181;53.258;6.932;2022-08-18T12:18:35;101587.17;;;22.69;66.79
65659;BME280;60181;53.258;6.932;2022-08-18T12:23:03;101586.91;;;22.69;66.73
65659;BME280;60181;53.258;6.932;2022-08-18T12:27:31;101585.58;;;22.69;66.47
65659;BME280;60181;53.258;6.932;2022-08-18T12:31:59;101586.33;;;22.69;66.70
65659;BME280;60181;53.258;6.932;2022-08-18T12:36:27;101587.84;;;22.68;66.09
65659;BME280;60181;53.258;6.932;2022-08-18T12:40:55;101589.04;;;22.67;66.07
65659;BME280;60181;53.258;6.932;2022-08-18T12:45:23;101587.61;;;22.66;65.93
65659;BME280;60181;53.258;6.932;2022-08-18T12:49:51;101584.69;;;22.65;65.71
65659;BME280;60181;53.258;6.932;2022-08-18T12:54:20;101582.47;;;22.65;65.46
65659;BME280;60181;53.258;6.932;2022-08-18T12:58:48;101579.96;;;22.63;65.66
65659;BME280;60181;53.258;6.932;2022-08-18T13:03:15;101579.41;;;22.62;65.75
65659;BME280;60181;53.258;6.932;2022-08-18T13:07:43;101575.38;;;22.62;65.46
65659;BME280;60181;53.258;6.932;2022-08-18T13:12:11;101570.56;;;22.61;65.52
65659;BME280;60181;53.258;6.932;2022-08-18T13:16:40;101566.88;;;22.62;65.89
65659;BME280;60181;53.258;6.932;2022-08-18T13:21:08;101562.19;;;22.63;65.28
65659;BME280;60181;53.258;6.932;2022-08-18T13:25:35;101556.19;;;22.63;65.03
65659;BME280;60181;53.258;6.932;2022-08-18T13:30:04;101551.75;;;22.64;64.92
65659;BME280;60181;53.258;6.932;2022-08-18T13:34:31;101547.15;;;22.64;65.21
65659;BME280;60181;53.258;6.932;2022-08-18T13:38:59;101541.48;;;22.63;65.39
65659;BME280;60181;53.258;6.932;2022-08-18T13:43:31;101535.88;;;22.63;65.65
65659;BME280;60181;53.258;6.932;2022-08-18T13:47:55;101532.39;;;22.63;66.14
65659;BME280;60181;53.258;6.932;2022-08-18T13:52:23;101531.62;;;22.64;65.41
65659;BME280;60181;53.258;6.932;2022-08-18T13:56:51;101533.45;;;22.64;65.15
65659;BME280;60181;53.258;6.932;2022-08-18T14:01:19;101535.14;;;22.63;64.78
65659;BME280;60181;53.258;6.932;2022-08-18T14:05:47;101535.97;;;22.63;64.66
65659;BME280;60181;53.258;6.932;2022-08-18T14:10:15;101539.15;;;22.62;64.42
65659;BME280;60181;53.258;6.932;2022-08-18T14:14:43;101543.22;;;22.63;64.16
65659;BME280;60181;53.258;6.932;2022-08-18T14:19:11;101545.22;;;22.63;63.57
65659;BME280;60181;53.258;6.932;2022-08-18T14:23:39;101550.08;;;22.64;64.04
65659;BME280;60181;53.258;6.932;2022-08-18T14:28:07;101555.80;;;22.65;63.46
65659;BME280;60181;53.258;6.932;2022-08-18T14:32:35;101561.40;;;22.66;63.31
65659;BME280;60181;53.258;6.932;2022-08-18T14:37:03;101567.49;;;22.66;63.61
65659;BME280;60181;53.258;6.932;2022-08-18T14:41:31;101572.86;;;22.65;63.55
65659;BME280;60181;53.258;6.932;2022-08-18T14:45:59;101576.44;;;22.65;63.51
65659;BME280;60181;53.258;6.932;2022-08-18T14:50:27;101577.35;;;22.64;63.49
65659;BME280;60181;53.258;6.932;2022-08-18T14:54:55;101577.28;;;22.64;62.94
65659;BME280;60181;53.258;6.932;2022-08-18T14:59:23;101578.63;;;22.65;63.07
65659;BME280;60181;53.258;6.932;2022-08-18T15:03:51;101581.56;;;22.63;63.51
65659;BME280;60181;53.258;6.932;2022-08-18T15:08:20;101584.09;;;22.59;63.42
65659;BME280;60181;53.258;6.932;2022-08-18T15:12:47;101585.55;;;22.57;63.28
65659;BME280;60181;53.258;6.932;2022-08-18T15:17:15;101586.65;;;22.56;63.02
65659;BME280;60181;53.258;6.932;2022-08-18T15:21:43;101586.79;;;22.57;62.69
65659;BME280;60181;53.258;6.932;2022-08-18T15:26:11;101587.75;;;22.60;62.67
65659;BME280;60181;53.258;6.932;2022-08-18T15:30:39;101588.25;;;22.60;62.85
65659;BME280;60181;53.258;6.932;2022-08-18T15:35:07;101587.75;;;22.60;62.67
65659;BME280;60181;53.258;6.932;2022-08-18T15:39:35;101587.18;;;22.60;62.99
65659;BME280;60181;53.258;6.932;2022-08-18T15:44:04;101584.77;;;22.58;62.97
65659;BME280;60181;53.258;6.932;2022-08-18T15:48:31;101579.96;;;22.56;62.83
65659;BME280;60181;53.258;6.932;2022-08-18T15:53:00;101575.95;;;22.55;63.04
65659;BME280;60181;53.258;6.932;2022-08-18T15:57:27;101575.37;;;22.55;63.17
65659;BME280;60181;53.258;6.932;2022-08-18T16:01:55;101575.14;;;22.54;63.03
65659;BME280;60181;53.258;6.932;2022-08-18T16:06:23;101574.81;;;22.53;63.08
65659;BME280;60181;53.258;6.932;2022-08-18T16:10:51;101572.63;;;22.53;63.02
65659;BME280;60181;53.258;6.932;2022-08-18T16:15:21;101567.16;;;22.49;62.77
65659;BME280;60181;53.258;6.932;2022-08-18T16:19:47;101560.33;;;22.46;62.86
65659;BME280;60181;53.258;6.932;2022-08-18T16:24:15;101554.61;;;22.43;62.77
65659;BME280;60181;53.258;6.932;2022-08-18T16:28:44;101549.19;;;22.40;62.56
65659;BME280;60181;53.258;6.932;2022-08-18T16:33:11;101546.94;;;22.39;62.60
65659;BME280;60181;53.258;6.932;2022-08-18T16:37:39;101545.62;;;22.38;62.79
65659;BME280;60181;53.258;6.932;2022-08-18T16:42:07;101541.14;;;22.36;62.89
65659;BME280;60181;53.258;6.932;2022-08-18T16:46:35;101535.47;;;22.35;62.97
65659;BME280;60181;53.258;6.932;2022-08-18T16:51:03;101531.19;;;22.38;62.51
65659;BME280;60181;53.258;6.932;2022-08-18T16:55:31;101527.39;;;22.52;61.13
65659;BME280;60181;53.258;6.932;2022-08-18T16:59:59;101523.74;;;22.67;60.92
65659;BME280;60181;53.258;6.932;2022-08-18T17:04:28;101519.59;;;22.79;60.95
65659;BME280;60181;53.258;6.932;2022-08-18T17:08:55;101514.86;;;22.90;61.22
65659;BME280;60181;53.258;6.932;2022-08-18T17:13:23;101511.27;;;22.98;61.61
65659;BME280;60181;53.258;6.932;2022-08-18T17:17:51;101508.69;;;23.05;61.82
65659;BME280;60181;53.258;6.932;2022-08-18T17:22:19;101507.28;;;23.10;61.88
65659;BME280;60181;53.258;6.932;2022-08-18T17:26:48;101507.15;;;23.13;62.01
65659;BME280;60181;53.258;6.932;2022-08-18T17:31:15;101506.61;;;23.16;62.13
65659;BME280;60181;53.258;6.932;2022-08-18T17:35:43;101506.18;;;23.17;62.22
65659;BME280;60181;53.258;6.932;2022-08-18T17:40:13;101505.83;;;23.18;62.27
65659;BME280;60181;53.258;6.932;2022-08-18T17:44:39;101505.58;;;23.19;62.32
65659;BME280;60181;53.258;6.932;2022-08-18T17:53:35;101502.40;;;23.19;62.48
65659;BME280;60181;53.258;6.932;2022-08-18T17:58:14;101503.24;;;23.19;62.88
65659;BME280;60181;53.258;6.932;2022-08-18T18:02:31;101506.56;;;23.20;62.66
65659;BME280;60181;53.258;6.932;2022-08-18T18:06:59;101509.07;;;23.20;62.67
65659;BME280;60181;53.258;6.932;2022-08-18T18:11:31;101512.92;;;23.20;62.87
65659;BME280;60181;53.258;6.932;2022-08-18T18:15:56;101517.19;;;23.19;62.85
65659;BME280;60181;53.258;6.932;2022-08-18T18:20:34;101524.47;;;23.19;62.92
65659;BME280;60181;53.258;6.932;2022-08-18T18:29:28;101536.86;;;23.17;63.30
65659;BME280;60181;53.258;6.932;2022-08-18T18:33:52;101542.88;;;23.16;63.28
65659;BME280;60181;53.258;6.932;2022-08-18T18:42:43;101550.53;;;23.13;63.34
65659;BME280;60181;53.258;6.932;2022-08-18T18:51:53;101554.32;;;23.10;63.48
65659;BME280;60181;53.258;6.932;2022-08-18T18:56:10;101554.66;;;23.09;63.83
65659;BME280;60181;53.258;6.932;2022-08-18T19:00:44;101556.17;;;23.08;63.85
65659;BME280;60181;53.258;6.932;2022-08-18T19:09:45;101555.69;;;23.07;63.89
65659;BME280;60181;53.258;6.932;2022-08-18T19:14:00;101554.88;;;23.07;63.98
65659;BME280;60181;53.258;6.932;2022-08-18T19:27:27;101550.70;;;23.05;64.13
65659;BME280;60181;53.258;6.932;2022-08-18T19:31:59;101549.38;;;23.05;64.13
65659;BME280;60181;53.258;6.932;2022-08-18T19:36:34;101548.44;;;23.04;64.17
65659;BME280;60181;53.258;6.932;2022-08-18T19:40:48;101547.71;;;23.04;64.25
65659;BME280;60181;53.258;6.932;2022-08-18T19:50:04;101549.56;;;23.03;62.75
65659;BME280;60181;53.258;6.932;2022-08-18T19:54:30;101549.58;;;23.01;62.81
65659;BME280;60181;53.258;6.932;2022-08-18T20:03:12;101547.80;;;22.97;63.10
65659;BME280;60181;53.258;6.932;2022-08-18T20:12:10;101546.58;;;22.95;62.62
65659;BME280;60181;53.258;6.932;2022-08-18T20:16:32;101544.42;;;22.94;62.74
65659;BME280;60181;53.258;6.932;2022-08-18T20:25:34;101539.34;;;22.90;62.42
65659;BME280;60181;53.258;6.932;2022-08-18T20:34:24;101534.03;;;22.88;62.61
65659;BME280;60181;53.258;6.932;2022-08-18T20:38:52;101533.03;;;22.88;62.69
65659;BME280;60181;53.258;6.932;2022-08-18T20:48:02;101527.62;;;22.87;62.09
65659;BME280;60181;53.258;6.932;2022-08-18T20:52:22;101524.03;;;22.86;62.34
65659;BME280;60181;53.258;6.932;2022-08-18T20:56:51;101522.77;;;22.85;62.36
65659;BME280;60181;53.258;6.932;2022-08-18T21:01:11;101522.78;;;22.84;62.44
65659;BME280;60181;53.258;6.932;2022-08-18T21:05:40;101523.74;;;22.84;62.38
65659;BME280;60181;53.258;6.932;2022-08-18T21:10:11;101523.97;;;22.82;62.07
65659;BME280;60181;53.258;6.932;2022-08-18T21:14:35;101524.00;;;22.81;62.24
65659;BME280;60181;53.258;6.932;2022-08-18T21:19:08;101524.10;;;22.79;61.84
65659;BME280;60181;53.258;6.932;2022-08-18T21:23:32;101525.69;;;22.79;62.04
65659;BME280;60181;53.258;6.932;2022-08-18T21:27:59;101527.39;;;22.77;61.98
65659;BME280;60181;53.258;6.932;2022-08-18T21:32:32;101528.89;;;22.76;61.88
65659;BME280;60181;53.258;6.932;2022-08-18T21:36:56;101531.10;;;22.75;61.61
65659;BME280;60181;53.258;6.932;2022-08-18T21:41:24;101534.28;;;22.73;61.26
65659;BME280;60181;53.258;6.932;2022-08-18T21:45:51;101536.63;;;22.72;61.62
65659;BME280;60181;53.258;6.932;2022-08-18T21:50:21;101539.07;;;22.71;61.67
65659;BME280;60181;53.258;6.932;2022-08-18T21:54:47;101541.08;;;22.70;61.57
65659;BME280;60181;53.258;6.932;2022-08-18T21:59:17;101542.10;;;22.69;60.96
65659;BME280;60181;53.258;6.932;2022-08-18T22:08:21;101546.95;;;22.68;61.26
65659;BME280;60181;53.258;6.932;2022-08-18T22:12:42;101548.53;;;22.67;61.13
65659;BME280;60181;53.258;6.932;2022-08-18T22:17:27;101551.97;;;22.66;60.54
65659;BME280;60181;53.258;6.932;2022-08-18T22:21:37;101554.47;;;22.64;60.73
65659;BME280;60181;53.258;6.932;2022-08-18T22:26:16;101556.52;;;22.63;60.39
65659;BME280;60181;53.258;6.932;2022-08-18T22:30:31;101557.86;;;22.62;60.60
65659;BME280;60181;53.258;6.932;2022-08-18T22:34:59;101557.93;;;22.61;60.81
65659;BME280;60181;53.258;6.932;2022-08-18T22:39:34;101557.87;;;22.60;60.69
65659;BME280;60181;53.258;6.932;2022-08-18T22:43:55;101557.54;;;22.59;60.06
65659;BME280;60181;53.258;6.932;2022-08-18T22:48:23;101557.89;;;22.58;60.26
65659;BME280;60181;53.258;6.932;2022-08-18T22:52:51;101558.15;;;22.56;60.19
65659;BME280;60181;53.258;6.932;2022-08-18T22:57:19;101558.93;;;22.56;60.09
65659;BME280;60181;53.258;6.932;2022-08-18T23:01:48;101560.50;;;22.54;60.19
65659;BME280;60181;53.258;6.932;2022-08-18T23:06:15;101561.52;;;22.53;60.21
65659;BME280;60181;53.258;6.932;2022-08-18T23:10:43;101561.80;;;22.53;60.07
65659;BME280;60181;53.258;6.932;2022-08-18T23:15:12;101562.04;;;22.52;60.37
65659;BME280;60181;53.258;6.932;2022-08-18T23:19:39;101560.96;;;22.51;60.29
65659;BME280;60181;53.258;6.932;2022-08-18T23:24:08;101560.13;;;22.50;60.08
65659;BME280;60181;53.258;6.932;2022-08-18T23:28:35;101558.73;;;22.49;59.85
65659;BME280;60181;53.258;6.932;2022-08-18T23:33:03;101557.24;;;22.48;59.87
65659;BME280;60181;53.258;6.932;2022-08-18T23:37:31;101557.42;;;22.47;59.87
65659;BME280;60181;53.258;6.932;2022-08-18T23:41:59;101555.90;;;22.47;59.98
65659;BME280;60181;53.258;6.932;2022-08-18T23:46:28;101551.93;;;22.46;59.87
65659;BME280;60181;53.258;6.932;2022-08-18T23:50:55;101549.27;;;22.45;59.75
65659;BME280;60181;53.258;6.932;2022-08-18T23:55:23;101548.69;;;22.44;59.63
65659;BME280;60181;53.258;6.932;2022-08-18T23:59:51;101548.78;;;22.42;59.85
